Terminal Aerodrome Forecast
Issued by NWS

Home | Current Version | Previous Version | Text Only | Print | Product List | Glossary On
Versions: 1 2 3 4 5 6 7 8 9 10 11 12 13 14 15 16 17 18 19 20 21 22 23 24
833
FTUS44 KBMX 212323
TAFMGM
TAF
KMGM 212323Z 2200/2224 09005KT 6SM -RA SCT007 OVC060
      TEMPO 2200/2201 2SM RA BKN007
     FM220300 09005KT P6SM VCSH OVC007
     FM220800 05004KT 3SM BR VCSH OVC005
     FM221500 07007KT P6SM VCSH OVC008
     FM221900 07007KT P6SM OVC020=

USA.gov is the U.S. government's official web portal to all federal, state and local government web resources and services.